sensor_id;sensor_type;location;lat;lon;timestamp;pressure;altitude;pressure_sealevel;temperature;humidity
35331;BME280;21441;52.190;20.910;2023-02-02T00:01:13;98851.91;;;1.83;100.00
35331;BME280;21441;52.190;20.910;2023-02-02T00:03:42;98846.72;;;1.74;100.00
35331;BME280;21441;52.190;20.910;2023-02-02T00:06:10;98844.59;;;1.77;100.00
35331;BME280;21441;52.190;20.910;2023-02-02T00:08:37;98844.69;;;1.85;100.00
35331;BME280;21441;52.190;20.910;2023-02-02T00:11:05;98828.81;;;1.77;100.00
35331;BME280;21441;52.190;20.910;2023-02-02T00:13:32;98841.53;;;1.82;100.00
35331;BME280;21441;52.190;20.910;2023-02-02T00:19:06;98848.00;;;1.88;100.00
35331;BME280;21441;52.190;20.910;2023-02-02T00:21:34;98825.38;;;1.77;100.00
35331;BME280;21441;52.190;20.910;2023-02-02T00:24:03;98826.75;;;1.81;100.00
35331;BME280;21441;52.190;20.910;2023-02-02T00:26:31;98838.75;;;1.65;100.00
35331;BME280;21441;52.190;20.910;2023-02-02T00:28:58;98836.78;;;1.68;100.00
35331;BME280;21441;52.190;20.910;2023-02-02T00:31:26;98827.78;;;1.70;100.00
35331;BME280;21441;52.190;20.910;2023-02-02T00:33:53;98834.91;;;1.78;100.00
35331;BME280;21441;52.190;20.910;2023-02-02T00:36:22;98833.94;;;1.79;100.00
35331;BME280;21441;52.190;20.910;2023-02-02T00:38:50;98829.97;;;1.75;100.00
35331;BME280;21441;52.190;20.910;2023-02-02T00:41:18;98826.28;;;1.68;100.00
35331;BME280;21441;52.190;20.910;2023-02-02T00:43:45;98827.41;;;1.65;100.00
35331;BME280;21441;52.190;20.910;2023-02-02T00:46:33;98828.59;;;1.71;100.00
35331;BME280;21441;52.190;20.910;2023-02-02T00:49:00;98842.06;;;1.68;100.00
35331;BME280;21441;52.190;20.910;2023-02-02T00:51:29;98835.81;;;1.69;100.00
35331;BME280;21441;52.190;20.910;2023-02-02T00:53:56;98835.91;;;1.77;100.00
35331;BME280;21441;52.190;20.910;2023-02-02T00:56:24;98837.41;;;1.79;100.00
35331;BME280;21441;52.190;20.910;2023-02-02T00:58:51;98830.25;;;1.72;100.00
35331;BME280;21441;52.190;20.910;2023-02-02T01:01:20;98818.47;;;1.76;100.00
35331;BME280;21441;52.190;20.910;2023-02-02T01:03:48;98818.38;;;1.50;100.00
35331;BME280;21441;52.190;20.910;2023-02-02T01:06:17;98820.56;;;1.54;100.00
35331;BME280;21441;52.190;20.910;2023-02-02T01:08:46;98828.69;;;1.61;100.00
35331;BME280;21441;52.190;20.910;2023-02-02T01:11:13;98826.25;;;1.50;100.00
35331;BME280;21441;52.190;20.910;2023-02-02T01:13:41;98829.13;;;1.29;100.00
35331;BME280;21441;52.190;20.910;2023-02-02T01:16:09;98808.16;;;1.19;100.00
35331;BME280;21441;52.190;20.910;2023-02-02T01:18:37;98806.50;;;1.18;100.00
35331;BME280;21441;52.190;20.910;2023-02-02T01:21:06;98805.06;;;1.06;100.00
35331;BME280;21441;52.190;20.910;2023-02-02T01:23:34;98823.53;;;1.14;100.00
35331;BME280;21441;52.190;20.910;2023-02-02T01:26:05;98824.19;;;1.26;100.00
35331;BME280;21441;52.190;20.910;2023-02-02T01:28:33;98806.31;;;1.29;100.00
35331;BME280;21441;52.190;20.910;2023-02-02T01:31:05;98809.22;;;1.26;100.00
35331;BME280;21441;52.190;20.910;2023-02-02T01:33:33;98814.03;;;1.31;100.00
35331;BME280;21441;52.190;20.910;2023-02-02T01:36:03;98797.97;;;1.34;100.00
35331;BME280;21441;52.190;20.910;2023-02-02T01:38:31;98810.72;;;1.56;100.00
35331;BME280;21441;52.190;20.910;2023-02-02T01:41:00;98821.47;;;1.35;100.00
35331;BME280;21441;52.190;20.910;2023-02-02T01:46:32;98809.59;;;1.31;100.00
35331;BME280;21441;52.190;20.910;2023-02-02T01:49:05;98821.03;;;1.40;100.00
35331;BME280;21441;52.190;20.910;2023-02-02T01:51:39;98812.72;;;1.44;100.00
35331;BME280;21441;52.190;20.910;2023-02-02T01:54:11;98808.66;;;1.32;100.00
35331;BME280;21441;52.190;20.910;2023-02-02T01:56:46;98822.97;;;1.38;100.00
35331;BME280;21441;52.190;20.910;2023-02-02T01:59:16;98819.16;;;1.32;100.00
35331;BME280;21441;52.190;20.910;2023-02-02T02:01:46;98824.25;;;1.34;100.00
35331;BME280;21441;52.190;20.910;2023-02-02T02:04:14;98820.53;;;1.36;100.00
35331;BME280;21441;52.190;20.910;2023-02-02T02:06:42;98815.75;;;1.50;100.00
35331;BME280;21441;52.190;20.910;2023-02-02T02:09:10;98822.41;;;1.44;100.00
35331;BME280;21441;52.190;20.910;2023-02-02T02:11:37;98821.34;;;1.37;100.00
35331;BME280;21441;52.190;20.910;2023-02-02T02:14:07;98818.84;;;1.35;100.00
35331;BME280;21441;52.190;20.910;2023-02-02T02:17:09;98823.00;;;1.56;100.00
35331;BME280;21441;52.190;20.910;2023-02-02T02:20:07;98833.28;;;1.49;100.00
35331;BME280;21441;52.190;20.910;2023-02-02T02:23:17;98835.66;;;1.52;100.00
35331;BME280;21441;52.190;20.910;2023-02-02T02:26:27;98824.44;;;1.50;100.00
35331;BME280;21441;52.190;20.910;2023-02-02T02:29:26;98829.34;;;1.45;100.00
35331;BME280;21441;52.190;20.910;2023-02-02T02:32:13;98833.97;;;1.51;100.00
35331;BME280;21441;52.190;20.910;2023-02-02T02:34:52;98818.59;;;1.38;100.00
35331;BME280;21441;52.190;20.910;2023-02-02T02:37:28;98817.59;;;1.39;100.00
35331;BME280;21441;52.190;20.910;2023-02-02T02:40:00;98823.91;;;1.47;100.00
35331;BME280;21441;52.190;20.910;2023-02-02T02:42:33;98824.00;;;1.55;100.00
35331;BME280;21441;52.190;20.910;2023-02-02T02:45:03;98826.69;;;1.45;100.00
35331;BME280;21441;52.190;20.910;2023-02-02T02:47:34;98824.38;;;1.60;100.00
35331;BME280;21441;52.190;20.910;2023-02-02T02:50:02;98817.69;;;1.48;100.00
35331;BME280;21441;52.190;20.910;2023-02-02T02:52:30;98826.41;;;1.66;100.00
35331;BME280;21441;52.190;20.910;2023-02-02T02:54:59;98832.69;;;1.83;100.00
35331;BME280;21441;52.190;20.910;2023-02-02T02:57:43;98806.06;;;1.68;100.00
35331;BME280;21441;52.190;20.910;2023-02-02T03:00:26;98827.41;;;1.83;100.00
35331;BME280;21441;52.190;20.910;2023-02-02T03:03:04;98824.94;;;1.81;100.00
35331;BME280;21441;52.190;20.910;2023-02-02T03:05:43;98822.53;;;1.88;100.00
35331;BME280;21441;52.190;20.910;2023-02-02T03:08:19;98831.47;;;1.95;100.00
35331;BME280;21441;52.190;20.910;2023-02-02T03:10:50;98832.81;;;1.99;100.00
35331;BME280;21441;52.190;20.910;2023-02-02T03:13:19;98839.75;;;2.00;100.00
35331;BME280;21441;52.190;20.910;2023-02-02T03:15:46;98833.50;;;2.01;100.00
35331;BME280;21441;52.190;20.910;2023-02-02T03:18:16;98835.53;;;2.08;100.00
35331;BME280;21441;52.190;20.910;2023-02-02T03:20:46;98831.63;;;2.12;100.00
35331;BME280;21441;52.190;20.910;2023-02-02T03:23:13;98832.38;;;2.22;100.00
35331;BME280;21441;52.190;20.910;2023-02-02T03:25:41;98841.53;;;2.36;100.00
35331;BME280;21441;52.190;20.910;2023-02-02T03:28:08;98834.47;;;2.18;100.00
35331;BME280;21441;52.190;20.910;2023-02-02T03:30:37;98823.59;;;2.13;100.00
35331;BME280;21441;52.190;20.910;2023-02-02T03:33:05;98834.63;;;2.17;100.00
35331;BME280;21441;52.190;20.910;2023-02-02T03:35:34;98833.56;;;2.10;100.00
35331;BME280;21441;52.190;20.910;2023-02-02T03:38:02;98840.41;;;2.20;100.00
35331;BME280;21441;52.190;20.910;2023-02-02T03:40:30;98828.28;;;2.27;100.00
35331;BME280;21441;52.190;20.910;2023-02-02T03:42:57;98845.00;;;2.18;100.00
35331;BME280;21441;52.190;20.910;2023-02-02T03:45:26;98829.81;;;2.12;100.00
35331;BME280;21441;52.190;20.910;2023-02-02T03:47:54;98839.59;;;2.20;100.00
35331;BME280;21441;52.190;20.910;2023-02-02T03:50:21;98832.16;;;2.15;100.00
35331;BME280;21441;52.190;20.910;2023-02-02T03:52:52;98820.78;;;2.15;100.00
35331;BME280;21441;52.190;20.910;2023-02-02T03:55:19;98842.00;;;2.13;100.00
35331;BME280;21441;52.190;20.910;2023-02-02T03:57:47;98829.94;;;2.11;100.00
35331;BME280;21441;52.190;20.910;2023-02-02T04:00:15;98836.28;;;2.18;100.00
35331;BME280;21441;52.190;20.910;2023-02-02T04:02:42;98831.69;;;2.20;100.00
35331;BME280;21441;52.190;20.910;2023-02-02T04:05:10;98829.88;;;2.20;100.00
35331;BME280;21441;52.190;20.910;2023-02-02T04:07:37;98821.47;;;2.17;100.00
35331;BME280;21441;52.190;20.910;2023-02-02T04:10:07;98819.81;;;2.16;100.00
35331;BME280;21441;52.190;20.910;2023-02-02T04:12:34;98827.75;;;2.24;100.00
35331;BME280;21441;52.190;20.910;2023-02-02T04:15:02;98782.03;;;1.99;100.00
35331;BME280;21441;52.190;20.910;2023-02-02T04:17:30;98829.44;;;2.25;100.00
35331;BME280;21441;52.190;20.910;2023-02-02T04:19:57;98832.41;;;2.30;100.00
35331;BME280;21441;52.190;20.910;2023-02-02T04:22:25;98813.28;;;2.20;100.00
35331;BME280;21441;52.190;20.910;2023-02-02T04:24:52;98829.88;;;2.20;100.00
35331;BME280;21441;52.190;20.910;2023-02-02T04:27:21;98826.56;;;2.36;100.00
35331;BME280;21441;52.190;20.910;2023-02-02T04:29:49;98820.94;;;2.31;100.00
35331;BME280;21441;52.190;20.910;2023-02-02T04:32:16;98819.81;;;2.16;100.00
35331;BME280;21441;52.190;20.910;2023-02-02T04:34:44;98832.88;;;2.25;100.00
35331;BME280;21441;52.190;20.910;2023-02-02T04:37:11;98839.13;;;2.24;100.00
35331;BME280;21441;52.190;20.910;2023-02-02T04:39:38;98833.66;;;2.18;100.00
35331;BME280;21441;52.190;20.910;2023-02-02T04:42:06;98838.75;;;2.19;100.00
35331;BME280;21441;52.190;20.910;2023-02-02T04:44:35;98827.31;;;2.11;100.00
35331;BME280;21441;52.190;20.910;2023-02-02T04:47:02;98839.88;;;2.17;100.00
35331;BME280;21441;52.190;20.910;2023-02-02T04:49:30;98822.91;;;2.11;100.00
35331;BME280;21441;52.190;20.910;2023-02-02T04:51:57;98826.72;;;2.17;100.00
35331;BME280;21441;52.190;20.910;2023-02-02T04:54:24;98828.00;;;2.13;100.00
35331;BME280;21441;52.190;20.910;2023-02-02T04:56:52;98841.22;;;2.21;100.00
35331;BME280;21441;52.190;20.910;2023-02-02T04:59:19;98833.13;;;2.14;100.00
35331;BME280;21441;52.190;20.910;2023-02-02T05:01:48;98822.06;;;2.11;100.00
35331;BME280;21441;52.190;20.910;2023-02-02T05:04:16;98834.84;;;2.23;100.00
35331;BME280;21441;52.190;20.910;2023-02-02T05:06:43;98842.59;;;2.25;100.00
35331;BME280;21441;52.190;20.910;2023-02-02T05:09:10;98848.81;;;2.24;100.00
35331;BME280;21441;52.190;20.910;2023-02-02T05:11:40;98842.50;;;2.35;100.00
35331;BME280;21441;52.190;20.910;2023-02-02T05:14:09;98842.50;;;2.35;100.00
35331;BME280;21441;52.190;20.910;2023-02-02T05:16:37;98837.91;;;2.37;100.00
35331;BME280;21441;52.190;20.910;2023-02-02T05:19:06;98836.13;;;2.37;100.00
35331;BME280;21441;52.190;20.910;2023-02-02T05:21:34;98827.75;;;2.24;100.00
35331;BME280;21441;52.190;20.910;2023-02-02T05:24:01;98841.38;;;2.37;100.00
35331;BME280;21441;52.190;20.910;2023-02-02T05:26:29;98847.69;;;2.44;100.00
35331;BME280;21441;52.190;20.910;2023-02-02T05:28:56;98840.50;;;2.55;100.00
35331;BME280;21441;52.190;20.910;2023-02-02T05:31:24;98847.81;;;2.43;100.00
35331;BME280;21441;52.190;20.910;2023-02-02T05:33:51;98836.75;;;2.39;100.00
35331;BME280;21441;52.190;20.910;2023-02-02T05:36:20;98841.94;;;2.49;100.00
35331;BME280;21441;52.190;20.910;2023-02-02T05:38:47;98828.94;;;2.47;100.00
35331;BME280;21441;52.190;20.910;2023-02-02T05:41:15;98820.06;;;2.48;100.00
35331;BME280;21441;52.190;20.910;2023-02-02T05:43:42;98836.69;;;2.49;100.00
35331;BME280;21441;52.190;20.910;2023-02-02T05:46:10;98835.75;;;2.58;100.00
35331;BME280;21441;52.190;20.910;2023-02-02T05:48:37;98826.63;;;2.44;100.00
35331;BME280;21441;52.190;20.910;2023-02-02T05:51:09;98816.91;;;2.45;100.00
35331;BME280;21441;52.190;20.910;2023-02-02T05:53:39;98835.09;;;2.56;100.00
35331;BME280;21441;52.190;20.910;2023-02-02T05:56:07;98838.66;;;2.47;100.00
35331;BME280;21441;52.190;20.910;2023-02-02T05:58:34;98835.41;;;2.53;100.00
35331;BME280;21441;52.190;20.910;2023-02-02T06:01:02;98846.97;;;2.60;100.00
35331;BME280;21441;52.190;20.910;2023-02-02T06:03:29;98829.09;;;2.72;100.00
35331;BME280;21441;52.190;20.910;2023-02-02T06:05:57;98836.78;;;2.65;100.00
35331;BME280;21441;52.190;20.910;2023-02-02T06:08:24;98829.94;;;2.73;100.00
35331;BME280;21441;52.190;20.910;2023-02-02T06:10:53;98829.09;;;2.72;100.00
35331;BME280;21441;52.190;20.910;2023-02-02T06:13:21;98847.63;;;2.62;100.00
35331;BME280;21441;52.190;20.910;2023-02-02T06:15:48;98841.91;;;2.67;100.00
35331;BME280;21441;52.190;20.910;2023-02-02T06:18:16;98835.69;;;2.76;100.00
35331;BME280;21441;52.190;20.910;2023-02-02T06:20:43;98842.16;;;2.82;100.00
35331;BME280;21441;52.190;20.910;2023-02-02T06:23:11;98844.19;;;2.88;100.00
35331;BME280;21441;52.190;20.910;2023-02-02T06:25:39;98839.75;;;2.88;100.00
35331;BME280;21441;52.190;20.910;2023-02-02T06:28:08;98844.88;;;2.90;100.00
35331;BME280;21441;52.190;20.910;2023-02-02T06:30:36;98837.63;;;2.92;100.00
35331;BME280;21441;52.190;20.910;2023-02-02T06:33:03;98837.34;;;3.03;100.00
35331;BME280;21441;52.190;20.910;2023-02-02T06:35:32;98831.69;;;2.90;100.00
35331;BME280;21441;52.190;20.910;2023-02-02T06:37:59;98830.22;;;2.96;100.00
35331;BME280;21441;52.190;20.910;2023-02-02T06:40:27;98835.50;;;2.96;100.00
35331;BME280;21441;52.190;20.910;2023-02-02T06:42:55;98836.50;;;2.95;100.00
35331;BME280;21441;52.190;20.910;2023-02-02T06:45:26;98832.72;;;2.97;100.00
35331;BME280;21441;52.190;20.910;2023-02-02T06:47:53;98839.94;;;2.95;100.00
35331;BME280;21441;52.190;20.910;2023-02-02T06:50:21;98823.97;;;2.97;100.00
35331;BME280;21441;52.190;20.910;2023-02-02T06:52:49;98824.19;;;3.03;100.00
35331;BME280;21441;52.190;20.910;2023-02-02T06:55:17;98812.84;;;3.11;100.00
35331;BME280;21441;52.190;20.910;2023-02-02T06:57:45;98820.75;;;3.54;100.00
35331;BME280;21441;52.190;20.910;2023-02-02T07:00:13;98815.63;;;3.52;100.00
35331;BME280;21441;52.190;20.910;2023-02-02T07:02:45;98813.59;;;3.38;100.00
35331;BME280;21441;52.190;20.910;2023-02-02T07:05:13;98819.34;;;3.33;100.00
35331;BME280;21441;52.190;20.910;2023-02-02T07:07:40;98818.81;;;3.21;100.00
35331;BME280;21441;52.190;20.910;2023-02-02T07:10:08;98821.13;;;3.16;100.00
35331;BME280;21441;52.190;20.910;2023-02-02T07:12:35;98816.38;;;2.94;100.00
35331;BME280;21441;52.190;20.910;2023-02-02T07:15:03;98821.69;;;3.02;100.00
35331;BME280;21441;52.190;20.910;2023-02-02T07:17:32;98816.78;;;3.07;100.00
35331;BME280;21441;52.190;20.910;2023-02-02T07:20:01;98809.56;;;2.83;100.00
35331;BME280;21441;52.190;20.910;2023-02-02T07:22:28;98804.50;;;2.63;100.00
35331;BME280;21441;52.190;20.910;2023-02-02T07:24:56;98802.75;;;2.72;100.00
35331;BME280;21441;52.190;20.910;2023-02-02T07:27:23;98810.00;;;2.70;100.00
35331;BME280;21441;52.190;20.910;2023-02-02T07:29:51;98812.78;;;2.68;100.00
35331;BME280;21441;52.190;20.910;2023-02-02T07:32:18;98810.41;;;2.57;100.00
35331;BME280;21441;52.190;20.910;2023-02-02T07:34:46;98809.28;;;2.60;100.00
35331;BME280;21441;52.190;20.910;2023-02-02T07:37:15;98815.09;;;2.72;100.00
35331;BME280;21441;52.190;20.910;2023-02-02T07:39:42;98814.53;;;2.60;100.00
35331;BME280;21441;52.190;20.910;2023-02-02T07:42:10;98805.63;;;2.53;100.00
35331;BME280;21441;52.190;20.910;2023-02-02T07:44:38;98820.31;;;2.63;100.00
35331;BME280;21441;52.190;20.910;2023-02-02T07:47:05;98815.03;;;2.63;100.00
35331;BME280;21441;52.190;20.910;2023-02-02T07:49:33;98825.22;;;2.58;100.00
35331;BME280;21441;52.190;20.910;2023-02-02T07:52:00;98823.59;;;2.57;100.00
35331;BME280;21441;52.190;20.910;2023-02-02T07:54:29;98816.84;;;2.63;100.00
35331;BME280;21441;52.190;20.910;2023-02-02T07:56:57;98826.91;;;2.41;100.00
35331;BME280;21441;52.190;20.910;2023-02-02T07:59:26;98816.81;;;2.29;100.00
35331;BME280;21441;52.190;20.910;2023-02-02T08:01:53;98822.66;;;2.22;100.00
35331;BME280;21441;52.190;20.910;2023-02-02T08:04:20;98805.06;;;2.23;100.00
35331;BME280;21441;52.190;20.910;2023-02-02T08:06:48;98822.50;;;2.42;100.00
35331;BME280;21441;52.190;20.910;2023-02-02T08:09:15;98824.09;;;2.61;100.00
35331;BME280;21441;52.190;20.910;2023-02-02T08:11:44;98828.19;;;2.55;100.00
35331;BME280;21441;52.190;20.910;2023-02-02T08:14:13;98827.53;;;2.17;100.00
35331;BME280;21441;52.190;20.910;2023-02-02T08:16:40;98827.84;;;2.32;100.00
35331;BME280;21441;52.190;20.910;2023-02-02T08:19:08;98822.78;;;2.39;100.00
35331;BME280;21441;52.190;20.910;2023-02-02T08:21:36;98838.28;;;2.42;100.00
35331;BME280;21441;52.190;20.910;2023-02-02T08:24:04;98839.34;;;2.31;100.00
35331;BME280;21441;52.190;20.910;2023-02-02T08:26:32;98843.25;;;2.27;100.00
35331;BME280;21441;52.190;20.910;2023-02-02T08:29:04;98836.97;;;2.20;100.00
35331;BME280;21441;52.190;20.910;2023-02-02T08:31:33;98836.75;;;2.13;100.00
35331;BME280;21441;52.190;20.910;2023-02-02T08:34:01;98819.75;;;1.90;100.00
35331;BME280;21441;52.190;20.910;2023-02-02T08:36:29;98833.22;;;2.04;100.00
35331;BME280;21441;52.190;20.910;2023-02-02T08:39:00;98847.69;;;2.09;100.00
35331;BME280;21441;52.190;20.910;2023-02-02T08:41:28;98849.59;;;2.16;100.00
35331;BME280;21441;52.190;20.910;2023-02-02T08:43:55;98849.81;;;2.05;100.00
35331;BME280;21441;52.190;20.910;2023-02-02T08:46:24;98846.19;;;2.06;100.00
35331;BME280;21441;52.190;20.910;2023-02-02T08:48:52;98844.56;;;2.05;100.00
35331;BME280;21441;52.190;20.910;2023-02-02T08:51:19;98835.00;;;2.04;100.00
35331;BME280;21441;52.190;20.910;2023-02-02T08:53:47;98854.31;;;2.13;100.00
35331;BME280;21441;52.190;20.910;2023-02-02T08:56:17;98853.72;;;2.19;100.00
35331;BME280;21441;52.190;20.910;2023-02-02T08:58:46;98840.47;;;2.11;100.00
35331;BME280;21441;52.190;20.910;2023-02-02T09:01:15;98838.47;;;2.22;100.00
35331;BME280;21441;52.190;20.910;2023-02-02T09:03:45;98857.09;;;2.29;100.00
35331;BME280;21441;52.190;20.910;2023-02-02T09:06:14;98854.75;;;2.08;100.00
35331;BME280;21441;52.190;20.910;2023-02-02T09:08:42;98851.53;;;2.32;100.00
35331;BME280;21441;52.190;20.910;2023-02-02T09:11:12;98853.91;;;2.43;100.00
35331;BME280;21441;52.190;20.910;2023-02-02T09:13:40;98858.28;;;2.53;100.00
35331;BME280;21441;52.190;20.910;2023-02-02T09:16:09;98834.50;;;2.44;100.00
35331;BME280;21441;52.190;20.910;2023-02-02T09:18:37;98860.81;;;2.62;100.00
35331;BME280;21441;52.190;20.910;2023-02-02T09:21:07;98857.44;;;2.78;100.00
35331;BME280;21441;52.190;20.910;2023-02-02T09:23:37;98852.97;;;2.71;100.00
35331;BME280;21441;52.190;20.910;2023-02-02T09:26:12;98862.50;;;2.72;100.00
35331;BME280;21441;52.190;20.910;2023-02-02T09:28:42;98849.84;;;2.49;100.00
35331;BME280;21441;52.190;20.910;2023-02-02T09:31:10;98868.63;;;2.54;100.00
35331;BME280;21441;52.190;20.910;2023-02-02T09:33:38;98870.34;;;2.63;100.00
35331;BME280;21441;52.190;20.910;2023-02-02T09:36:09;98859.94;;;2.36;100.00
35331;BME280;21441;52.190;20.910;2023-02-02T09:38:37;98861.56;;;2.55;100.00
35331;BME280;21441;52.190;20.910;2023-02-02T09:41:43;98873.78;;;2.38;100.00
35331;BME280;21441;52.190;20.910;2023-02-02T09:44:24;98881.91;;;2.44;100.00
35331;BME280;21441;52.190;20.910;2023-02-02T09:47:03;98890.41;;;2.38;100.00
35331;BME280;21441;52.190;20.910;2023-02-02T09:49:39;98885.84;;;2.66;100.00
35331;BME280;21441;52.190;20.910;2023-02-02T09:52:16;98863.09;;;2.57;100.00
35331;BME280;21441;52.190;20.910;2023-02-02T09:54:46;98900.13;;;2.82;100.00
35331;BME280;21441;52.190;20.910;2023-02-02T09:57:18;98904.91;;;2.86;100.00
35331;BME280;21441;52.190;20.910;2023-02-02T09:59:50;98918.81;;;2.97;100.00
35331;BME280;21441;52.190;20.910;2023-02-02T10:02:25;98906.81;;;3.02;100.00
35331;BME280;21441;52.190;20.910;2023-02-02T10:04:55;98913.19;;;3.18;100.00
35331;BME280;21441;52.190;20.910;2023-02-02T10:07:31;98928.22;;;3.25;100.00
35331;BME280;21441;52.190;20.910;2023-02-02T10:10:04;98929.03;;;3.26;100.00
35331;BME280;21441;52.190;20.910;2023-02-02T10:12:42;98934.31;;;3.26;100.00
35331;BME280;21441;52.190;20.910;2023-02-02T10:15:17;98935.75;;;3.20;100.00
35331;BME280;21441;52.190;20.910;2023-02-02T10:17:51;98937.91;;;3.17;100.00
35331;BME280;21441;52.190;20.910;2023-02-02T10:20:30;98935.09;;;3.18;100.00
35331;BME280;21441;52.190;20.910;2023-02-02T10:23:08;98950.66;;;3.29;100.00
35331;BME280;21441;52.190;20.910;2023-02-02T10:25:45;98942.78;;;3.12;100.00
35331;BME280;21441;52.190;20.910;2023-02-02T10:28:17;98945.97;;;3.49;100.00
35331;BME280;21441;52.190;20.910;2023-02-02T10:30:52;98947.25;;;3.71;100.00
35331;BME280;21441;52.190;20.910;2023-02-02T10:33:29;98952.22;;;3.83;100.00
35331;BME280;21441;52.190;20.910;2023-02-02T10:36:07;98962.16;;;3.89;100.00
35331;BME280;21441;52.190;20.910;2023-02-02T10:38:45;98962.53;;;4.02;100.00
35331;BME280;21441;52.190;20.910;2023-02-02T10:41:21;98966.84;;;4.11;100.00
35331;BME280;21441;52.190;20.910;2023-02-02T10:44:08;98976.75;;;4.26;100.00
35331;BME280;21441;52.190;20.910;2023-02-02T10:46:44;98972.13;;;4.28;100.00
35331;BME280;21441;52.190;20.910;2023-02-02T10:49:26;98975.94;;;4.25;100.00
35331;BME280;21441;52.190;20.910;2023-02-02T10:51:59;98995.94;;;4.36;100.00
35331;BME280;21441;52.190;20.910;2023-02-02T10:54:46;99004.06;;;4.51;100.00
35331;BME280;21441;52.190;20.910;2023-02-02T10:57:25;98991.47;;;4.37;100.00
35331;BME280;21441;52.190;20.910;2023-02-02T11:00:03;99004.00;;;4.34;100.00
35331;BME280;21441;52.190;20.910;2023-02-02T11:02:31;99015.06;;;4.30;100.00
35331;BME280;21441;52.190;20.910;2023-02-02T11:04:59;99016.53;;;4.32;100.00
35331;BME280;21441;52.190;20.910;2023-02-02T11:07:43;99017.31;;;4.08;100.00
35331;BME280;21441;52.190;20.910;2023-02-02T11:10:12;99019.91;;;4.00;100.00
35331;BME280;21441;52.190;20.910;2023-02-02T11:12:41;99027.81;;;4.00;100.00
35331;BME280;21441;52.190;20.910;2023-02-02T11:15:25;99014.59;;;3.92;100.00
35331;BME280;21441;52.190;20.910;2023-02-02T11:17:53;99025.22;;;3.74;100.00
35331;BME280;21441;52.190;20.910;2023-02-02T11:20:24;99036.22;;;3.96;100.00
35331;BME280;21441;52.190;20.910;2023-02-02T11:23:01;99050.38;;;3.95;100.00
35331;BME280;21441;52.190;20.910;2023-02-02T11:25:33;99043.38;;;4.11;100.00
35331;BME280;21441;52.190;20.910;2023-02-02T11:28:09;99041.50;;;4.04;100.00
35331;BME280;21441;52.190;20.910;2023-02-02T11:30:45;99046.13;;;4.02;100.00
35331;BME280;21441;52.190;20.910;2023-02-02T11:33:26;99050.38;;;4.29;100.00
35331;BME280;21441;52.190;20.910;2023-02-02T11:35:56;99061.66;;;4.39;100.00
35331;BME280;21441;52.190;20.910;2023-02-02T11:38:24;99051.00;;;4.23;100.00
35331;BME280;21441;52.190;20.910;2023-02-02T11:40:55;99059.38;;;4.10;100.00
35331;BME280;21441;52.190;20.910;2023-02-02T11:43:29;99060.84;;;4.12;100.00
35331;BME280;21441;52.190;20.910;2023-02-02T11:45:59;99072.31;;;4.29;100.00
35331;BME280;21441;52.190;20.910;2023-02-02T11:48:31;99068.84;;;4.29;100.00
35331;BME280;21441;52.190;20.910;2023-02-02T11:51:01;99069.97;;;4.18;100.00
35331;BME280;21441;52.190;20.910;2023-02-02T11:53:31;99075.75;;;4.22;100.00
35331;BME280;21441;52.190;20.910;2023-02-02T11:56:03;99070.19;;;4.33;100.00
35331;BME280;21441;52.190;20.910;2023-02-02T11:58:42;99081.75;;;4.40;100.00
35331;BME280;21441;52.190;20.910;2023-02-02T12:01:22;99090.16;;;4.36;100.00
35331;BME280;21441;52.190;20.910;2023-02-02T12:03:52;99090.47;;;4.24;100.00
35331;BME280;21441;52.190;20.910;2023-02-02T12:06:22;99071.13;;;4.16;100.00
35331;BME280;21441;52.190;20.910;2023-02-02T12:08:54;99101.84;;;4.25;100.00
35331;BME280;21441;52.190;20.910;2023-02-02T12:11:38;99099.91;;;4.35;100.00
35331;BME280;21441;52.190;20.910;2023-02-02T12:14:20;99086.72;;;4.35;100.00
35331;BME280;21441;52.190;20.910;2023-02-02T12:17:00;99093.09;;;4.32;100.00
35331;BME280;21441;52.190;20.910;2023-02-02T12:19:50;99113.13;;;4.35;100.00
35331;BME280;21441;52.190;20.910;2023-02-02T12:22:32;99113.81;;;4.11;100.00
35331;BME280;21441;52.190;20.910;2023-02-02T12:28:04;99125.97;;;4.04;100.00
35331;BME280;21441;52.190;20.910;2023-02-02T12:30:41;99119.25;;;4.09;100.00
35331;BME280;21441;52.190;20.910;2023-02-02T12:33:20;99130.94;;;4.07;100.00
35331;BME280;21441;52.190;20.910;2023-02-02T12:36:06;99128.00;;;4.10;100.00
35331;BME280;21441;52.190;20.910;2023-02-02T12:38:51;99139.53;;;4.09;100.00
35331;BME280;21441;52.190;20.910;2023-02-02T12:41:34;99128.72;;;3.94;100.00
35331;BME280;21441;52.190;20.910;2023-02-02T12:44:11;99145.56;;;3.93;100.00
35331;BME280;21441;52.190;20.910;2023-02-02T12:46:52;99156.88;;;4.11;100.00
35331;BME280;21441;52.190;20.910;2023-02-02T12:49:35;99167.09;;;4.06;100.00
35331;BME280;21441;52.190;20.910;2023-02-02T12:52:16;99172.69;;;3.85;100.00
35331;BME280;21441;52.190;20.910;2023-02-02T12:54:59;99180.03;;;3.74;100.00
35331;BME280;21441;52.190;20.910;2023-02-02T12:57:39;99178.34;;;3.90;100.00
35331;BME280;21441;52.190;20.910;2023-02-02T13:00:37;99188.69;;;3.84;100.00
35331;BME280;21441;52.190;20.910;2023-02-02T13:03:21;99189.47;;;3.76;100.00
35331;BME280;21441;52.190;20.910;2023-02-02T13:06:01;99204.91;;;3.71;100.00
35331;BME280;21441;52.190;20.910;2023-02-02T13:08:35;99217.69;;;3.84;100.00
35331;BME280;21441;52.190;20.910;2023-02-02T13:11:08;99225.84;;;3.72;100.00
35331;BME280;21441;52.190;20.910;2023-02-02T13:13:57;99231.91;;;3.65;100.00
35331;BME280;21441;52.190;20.910;2023-02-02T13:16:29;99253.38;;;3.70;100.00
35331;BME280;21441;52.190;20.910;2023-02-02T13:19:01;99245.59;;;3.86;100.00
35331;BME280;21441;52.190;20.910;2023-02-02T13:21:31;99255.03;;;3.89;100.00